sensor_id;sensor_type;location;lat;lon;timestamp;pressure;altitude;pressure_sealevel;temperature;humidity
58658;BME280;44428;45.630;13.786;2023-01-30T00:01:29;102107.88;;;0.64;61.48
58658;BME280;44428;45.630;13.786;2023-01-30T00:03:56;102110.53;;;0.58;62.11
58658;BME280;44428;45.630;13.786;2023-01-30T00:06:22;102122.72;;;0.52;62.01
58658;BME280;44428;45.630;13.786;2023-01-30T00:08:48;102110.63;;;0.38;62.62
58658;BME280;44428;45.630;13.786;2023-01-30T00:11:15;102114.13;;;0.34;62.86
58658;BME280;44428;45.630;13.786;2023-01-30T00:13:42;102114.16;;;0.31;62.86
58658;BME280;44428;45.630;13.786;2023-01-30T00:16:08;102102.03;;;0.27;62.42
58658;BME280;44428;45.630;13.786;2023-01-30T00:18:35;102102.03;;;0.27;62.92
58658;BME280;44428;45.630;13.786;2023-01-30T00:21:03;102100.31;;;0.26;62.43
58658;BME280;44428;45.630;13.786;2023-01-30T00:23:30;102100.28;;;0.29;61.60
58658;BME280;44428;45.630;13.786;2023-01-30T00:25:57;102098.56;;;0.31;61.20
58658;BME280;44428;45.630;13.786;2023-01-30T00:28:23;102105.47;;;0.32;61.25
58658;BME280;44428;45.630;13.786;2023-01-30T00:30:49;102102.03;;;0.27;61.14
58658;BME280;44428;45.630;13.786;2023-01-30T00:33:16;102098.59;;;0.22;61.10
58658;BME280;44428;45.630;13.786;2023-01-30T00:35:45;102096.03;;;0.19;61.71
58658;BME280;44428;45.630;13.786;2023-01-30T00:38:12;102096.84;;;0.24;61.14
58658;BME280;44428;45.630;13.786;2023-01-30T00:40:40;102098.56;;;0.28;60.36
58658;BME280;44428;45.630;13.786;2023-01-30T00:43:06;102091.59;;;0.39;58.69
58658;BME280;44428;45.630;13.786;2023-01-30T00:45:52;102091.56;;;0.42;58.76
58658;BME280;44428;45.630;13.786;2023-01-30T00:48:37;102081.19;;;0.39;58.09
58658;BME280;44428;45.630;13.786;2023-01-30T00:51:03;102074.22;;;0.41;58.32
58658;BME280;44428;45.630;13.786;2023-01-30T00:53:29;102065.53;;;0.45;58.32
58658;BME280;44428;45.630;13.786;2023-01-30T00:55:55;102067.28;;;0.43;58.91
58658;BME280;44428;45.630;13.786;2023-01-30T00:58:21;102063.81;;;0.41;59.39
58658;BME280;44428;45.630;13.786;2023-01-30T01:00:48;102066.44;;;0.38;59.51
58658;BME280;44428;45.630;13.786;2023-01-30T01:03:14;102059.53;;;0.37;59.15
58658;BME280;44428;45.630;13.786;2023-01-30T01:05:40;102061.31;;;0.26;59.57
58658;BME280;44428;45.630;13.786;2023-01-30T01:08:06;102063.97;;;0.14;59.84
58658;BME280;44428;45.630;13.786;2023-01-30T01:10:33;102055.31;;;0.12;60.64
58658;BME280;44428;45.630;13.786;2023-01-30T01:12:58;102064.03;;;0.05;61.09
58658;BME280;44428;45.630;13.786;2023-01-30T01:15:25;102065.78;;;-0.04;61.44
58658;BME280;44428;45.630;13.786;2023-01-30T01:17:52;102064.13;;;-0.14;62.05
58658;BME280;44428;45.630;13.786;2023-01-30T01:20:19;102058.03;;;-0.13;62.60
58658;BME280;44428;45.630;13.786;2023-01-30T01:22:45;102052.00;;;-0.12;62.63
58658;BME280;44428;45.630;13.786;2023-01-30T01:25:14;102053.69;;;-0.08;62.36
58658;BME280;44428;45.630;13.786;2023-01-30T01:27:39;102041.63;;;-0.15;62.05
58658;BME280;44428;45.630;13.786;2023-01-30T01:30:06;102033.84;;;-0.21;62.26
58658;BME280;44428;45.630;13.786;2023-01-30T01:32:32;102040.75;;;-0.25;62.42
58658;BME280;44428;45.630;13.786;2023-01-30T01:34:58;102031.28;;;-0.30;62.45
58658;BME280;44428;45.630;13.786;2023-01-30T01:37:23;102029.56;;;-0.34;62.41
58658;BME280;44428;45.630;13.786;2023-01-30T01:39:49;102036.50;;;-0.33;62.60
58658;BME280;44428;45.630;13.786;2023-01-30T01:42:35;102039.09;;;-0.35;63.30
58658;BME280;44428;45.630;13.786;2023-01-30T01:50:18;102017.34;;;-0.11;62.04
58658;BME280;44428;45.630;13.786;2023-01-30T01:52:47;102020.81;;;-0.13;62.41
58658;BME280;44428;45.630;13.786;2023-01-30T01:55:14;102018.25;;;-0.18;63.15
58658;BME280;44428;45.630;13.786;2023-01-30T01:57:48;102017.41;;;-0.23;63.16
58658;BME280;44428;45.630;13.786;2023-01-30T02:00:17;102017.38;;;-0.17;62.20
58658;BME280;44428;45.630;13.786;2023-01-30T02:02:50;102013.03;;;-0.13;61.68
58658;BME280;44428;45.630;13.786;2023-01-30T02:05:18;102014.75;;;-0.14;60.93
58658;BME280;44428;45.630;13.786;2023-01-30T02:08:00;102013.03;;;-0.15;60.91
58658;BME280;44428;45.630;13.786;2023-01-30T02:10:34;102009.59;;;-0.20;60.67
58658;BME280;44428;45.630;13.786;2023-01-30T02:13:04;102004.34;;;-0.15;60.54
58658;BME280;44428;45.630;13.786;2023-01-30T02:15:30;101999.97;;;0.01;58.19
58658;BME280;44428;45.630;13.786;2023-01-30T02:17:55;101994.72;;;0.07;57.92
58658;BME280;44428;45.630;13.786;2023-01-30T02:31:53;102003.53;;;-0.25;60.83
58658;BME280;44428;45.630;13.786;2023-01-30T02:37:31;102010.53;;;-0.30;60.43
58658;BME280;44428;45.630;13.786;2023-01-30T02:42:46;102003.56;;;-0.28;59.66
58658;BME280;44428;45.630;13.786;2023-01-30T02:50:58;102000.13;;;-0.30;60.06
58658;BME280;44428;45.630;13.786;2023-01-30T02:53:29;102001.84;;;-0.32;59.97
58658;BME280;44428;45.630;13.786;2023-01-30T02:55:56;101997.56;;;-0.36;60.42
58658;BME280;44428;45.630;13.786;2023-01-30T02:58:22;101993.25;;;-0.43;61.18
58658;BME280;44428;45.630;13.786;2023-01-30T03:07:54;101977.63;;;-0.34;62.16
58658;BME280;44428;45.630;13.786;2023-01-30T03:10:39;101981.97;;;-0.38;61.89
58658;BME280;44428;45.630;13.786;2023-01-30T03:13:16;101980.28;;;-0.45;62.13
58658;BME280;44428;45.630;13.786;2023-01-30T03:15:49;101981.16;;;-0.51;62.19
58658;BME280;44428;45.630;13.786;2023-01-30T03:18:17;101976.88;;;-0.59;62.39
58658;BME280;44428;45.630;13.786;2023-01-30T03:20:44;101975.16;;;-0.62;62.51
58658;BME280;44428;45.630;13.786;2023-01-30T03:23:10;101970.84;;;-0.63;62.79
58658;BME280;44428;45.630;13.786;2023-01-30T03:25:37;101966.47;;;-0.58;62.35
58658;BME280;44428;45.630;13.786;2023-01-30T03:28:04;101964.78;;;-0.60;62.36
58658;BME280;44428;45.630;13.786;2023-01-30T03:30:32;101964.75;;;-0.57;62.24
58658;BME280;44428;45.630;13.786;2023-01-30T03:33:06;101963.88;;;-0.58;62.83
58658;BME280;44428;45.630;13.786;2023-01-30T03:35:34;101953.50;;;-0.61;62.64
58658;BME280;44428;45.630;13.786;2023-01-30T03:38:01;101956.09;;;-0.58;62.78
58658;BME280;44428;45.630;13.786;2023-01-30T03:40:28;101958.69;;;-0.61;62.47
58658;BME280;44428;45.630;13.786;2023-01-30T03:42:54;101964.78;;;-0.65;62.85
58658;BME280;44428;45.630;13.786;2023-01-30T03:45:19;101957.00;;;-0.63;63.28
58658;BME280;44428;45.630;13.786;2023-01-30T03:47:46;101945.69;;;-0.58;63.19
58658;BME280;44428;45.630;13.786;2023-01-30T03:50:12;101946.56;;;-0.56;63.17
58658;BME280;44428;45.630;13.786;2023-01-30T03:52:38;101939.63;;;-0.54;63.04
58658;BME280;44428;45.630;13.786;2023-01-30T03:55:09;101943.09;;;-0.58;63.16
58658;BME280;44428;45.630;13.786;2023-01-30T03:57:35;101934.47;;;-0.60;63.16
58658;BME280;44428;45.630;13.786;2023-01-30T04:00:01;101933.59;;;-0.59;63.60
58658;BME280;44428;45.630;13.786;2023-01-30T04:02:30;101938.81;;;-0.65;64.08
58658;BME280;44428;45.630;13.786;2023-01-30T04:04:58;101926.72;;;-0.67;63.81
58658;BME280;44428;45.630;13.786;2023-01-30T04:07:24;101932.78;;;-0.70;63.95
58658;BME280;44428;45.630;13.786;2023-01-30T04:09:51;101926.75;;;-0.75;63.96
58658;BME280;44428;45.630;13.786;2023-01-30T04:12:18;101926.75;;;-0.74;64.13
58658;BME280;44428;45.630;13.786;2023-01-30T04:14:51;101924.16;;;-0.75;64.29
58658;BME280;44428;45.630;13.786;2023-01-30T04:17:44;101917.22;;;-0.76;64.56
58658;BME280;44428;45.630;13.786;2023-01-30T04:20:28;101907.72;;;-0.79;64.62
58658;BME280;44428;45.630;13.786;2023-01-30T04:22:55;101910.31;;;-0.77;64.57
58658;BME280;44428;45.630;13.786;2023-01-30T04:25:23;101899.06;;;-0.79;64.94
58658;BME280;44428;45.630;13.786;2023-01-30T04:27:52;101896.47;;;-0.79;64.91
58658;BME280;44428;45.630;13.786;2023-01-30T04:30:22;101899.94;;;-0.80;64.52
58658;BME280;44428;45.630;13.786;2023-01-30T04:32:52;101894.78;;;-0.86;64.94
58658;BME280;44428;45.630;13.786;2023-01-30T04:35:18;101895.63;;;-0.83;65.26
58658;BME280;44428;45.630;13.786;2023-01-30T04:37:43;101901.69;;;-0.82;64.94
58658;BME280;44428;45.630;13.786;2023-01-30T04:40:12;101895.66;;;-0.86;65.25
58658;BME280;44428;45.630;13.786;2023-01-30T04:42:38;101895.69;;;-0.90;65.43
58658;BME280;44428;45.630;13.786;2023-01-30T04:45:24;101892.22;;;-0.94;65.97
58658;BME280;44428;45.630;13.786;2023-01-30T04:47:51;101886.16;;;-0.95;65.84
58658;BME280;44428;45.630;13.786;2023-01-30T04:50:17;101889.63;;;-0.93;65.81
58658;BME280;44428;45.630;13.786;2023-01-30T04:52:42;101889.63;;;-0.93;66.39
58658;BME280;44428;45.630;13.786;2023-01-30T04:55:09;101889.63;;;-0.89;66.05
58658;BME280;44428;45.630;13.786;2023-01-30T04:57:35;101891.31;;;-0.88;66.04
58658;BME280;44428;45.630;13.786;2023-01-30T05:00:02;101887.03;;;-0.93;66.01
58658;BME280;44428;45.630;13.786;2023-01-30T05:02:28;101887.91;;;-0.94;66.41
58658;BME280;44428;45.630;13.786;2023-01-30T05:04:54;101888.78;;;-0.99;66.26
58658;BME280;44428;45.630;13.786;2023-01-30T05:07:20;101887.06;;;-1.05;66.64
58658;BME280;44428;45.630;13.786;2023-01-30T05:09:45;101893.13;;;-1.06;66.84
58658;BME280;44428;45.630;13.786;2023-01-30T05:12:12;101886.19;;;-1.01;66.57
58658;BME280;44428;45.630;13.786;2023-01-30T05:14:37;101877.50;;;-0.87;65.36
58658;BME280;44428;45.630;13.786;2023-01-30T05:17:05;101884.41;;;-0.83;65.16
58658;BME280;44428;45.630;13.786;2023-01-30T05:19:31;101882.66;;;-0.78;65.38
58658;BME280;44428;45.630;13.786;2023-01-30T05:21:57;101880.03;;;-0.74;65.70
58658;BME280;44428;45.630;13.786;2023-01-30T05:24:22;101877.44;;;-0.72;66.20
58658;BME280;44428;45.630;13.786;2023-01-30T05:26:48;101878.31;;;-0.79;66.32
58658;BME280;44428;45.630;13.786;2023-01-30T05:29:13;101878.31;;;-0.82;66.59
58658;BME280;44428;45.630;13.786;2023-01-30T05:31:39;101879.19;;;-0.77;66.33
58658;BME280;44428;45.630;13.786;2023-01-30T05:34:05;101874.88;;;-0.81;66.00
58658;BME280;44428;45.630;13.786;2023-01-30T05:36:31;101876.59;;;-0.85;66.35
58658;BME280;44428;45.630;13.786;2023-01-30T05:38:56;101880.06;;;-0.83;66.23
58658;BME280;44428;45.630;13.786;2023-01-30T05:41:22;101872.31;;;-0.87;66.74
58658;BME280;44428;45.630;13.786;2023-01-30T05:43:48;101882.69;;;-0.87;66.69
58658;BME280;44428;45.630;13.786;2023-01-30T05:46:14;101887.91;;;-0.94;66.78
58658;BME280;44428;45.630;13.786;2023-01-30T05:48:40;101897.41;;;-0.94;66.79
58658;BME280;44428;45.630;13.786;2023-01-30T05:51:13;101891.38;;;-1.01;67.01
58658;BME280;44428;45.630;13.786;2023-01-30T05:53:39;101906.94;;;-1.04;67.16
58658;BME280;44428;45.630;13.786;2023-01-30T05:56:05;101910.41;;;-1.05;67.70
58658;BME280;44428;45.630;13.786;2023-01-30T05:58:31;101919.94;;;-1.07;67.83
58658;BME280;44428;45.630;13.786;2023-01-30T06:01:05;101924.25;;;-1.00;67.79
58658;BME280;44428;45.630;13.786;2023-01-30T06:03:32;101919.94;;;-1.02;68.24
58658;BME280;44428;45.630;13.786;2023-01-30T06:06:00;101927.69;;;-1.04;68.44
58658;BME280;44428;45.630;13.786;2023-01-30T06:08:26;101918.22;;;-1.05;68.82
58658;BME280;44428;45.630;13.786;2023-01-30T06:10:52;101924.28;;;-1.06;68.82
58658;BME280;44428;45.630;13.786;2023-01-30T06:13:17;101918.19;;;-1.06;68.92
58658;BME280;44428;45.630;13.786;2023-01-30T06:15:43;101918.19;;;-0.99;69.13
58658;BME280;44428;45.630;13.786;2023-01-30T06:18:09;101915.59;;;-0.99;69.40
58658;BME280;44428;45.630;13.786;2023-01-30T06:20:35;101923.34;;;-0.97;69.08
58658;BME280;44428;45.630;13.786;2023-01-30T06:23:01;101921.63;;;-0.94;68.82
58658;BME280;44428;45.630;13.786;2023-01-30T06:25:26;101927.66;;;-0.95;68.60
58658;BME280;44428;45.630;13.786;2023-01-30T06:27:52;101929.41;;;-0.94;68.54
58658;BME280;44428;45.630;13.786;2023-01-30T06:30:18;101922.44;;;-0.85;68.06
58658;BME280;44428;45.630;13.786;2023-01-30T06:32:43;101922.44;;;-0.85;68.72
58658;BME280;44428;45.630;13.786;2023-01-30T06:35:09;101924.19;;;-0.84;68.17
58658;BME280;44428;45.630;13.786;2023-01-30T06:37:35;101926.72;;;-0.71;66.84
58658;BME280;44428;45.630;13.786;2023-01-30T06:40:00;101922.38;;;-0.70;66.93
58658;BME280;44428;45.630;13.786;2023-01-30T06:42:26;101916.38;;;-0.72;67.14
58658;BME280;44428;45.630;13.786;2023-01-30T06:44:52;101919.81;;;-0.73;67.40
58658;BME280;44428;45.630;13.786;2023-01-30T06:47:17;101912.00;;;-0.70;67.44
58658;BME280;44428;45.630;13.786;2023-01-30T06:49:43;101907.66;;;-0.65;68.03
58658;BME280;44428;45.630;13.786;2023-01-30T06:52:09;101911.97;;;-0.64;67.81
58658;BME280;44428;45.630;13.786;2023-01-30T06:54:34;101917.94;;;-0.43;66.61
58658;BME280;44428;45.630;13.786;2023-01-30T06:57:00;101918.78;;;-0.35;66.20
58658;BME280;44428;45.630;13.786;2023-01-30T06:59:26;101922.19;;;-0.24;66.13
58658;BME280;44428;45.630;13.786;2023-01-30T07:01:51;101919.53;;;-0.15;65.61
58658;BME280;44428;45.630;13.786;2023-01-30T07:04:17;101913.41;;;-0.08;64.83
58658;BME280;44428;45.630;13.786;2023-01-30T07:06:42;101918.53;;;0.02;64.37
58658;BME280;44428;45.630;13.786;2023-01-30T07:09:09;101934.06;;;0.11;63.83
58658;BME280;44428;45.630;13.786;2023-01-30T07:11:34;101930.50;;;0.21;63.12
58658;BME280;44428;45.630;13.786;2023-01-30T07:14:00;101940.78;;;0.33;62.77
58658;BME280;44428;45.630;13.786;2023-01-30T07:16:26;101937.25;;;0.43;62.09
58658;BME280;44428;45.630;13.786;2023-01-30T07:18:55;101932.06;;;0.43;62.09
58658;BME280;44428;45.630;13.786;2023-01-30T07:21:25;101930.28;;;0.52;61.72
58658;BME280;44428;45.630;13.786;2023-01-30T07:23:52;101938.88;;;0.58;61.16
58658;BME280;44428;45.630;13.786;2023-01-30T07:26:18;101937.09;;;0.62;61.49
58658;BME280;44428;45.630;13.786;2023-01-30T07:28:43;101950.97;;;0.64;61.70
58658;BME280;44428;45.630;13.786;2023-01-30T07:31:09;101947.44;;;0.68;61.68
58658;BME280;44428;45.630;13.786;2023-01-30T07:33:34;101937.84;;;0.75;60.88
58658;BME280;44428;45.630;13.786;2023-01-30T07:36:00;101940.41;;;0.79;60.94
58658;BME280;44428;45.630;13.786;2023-01-30T07:38:26;101933.38;;;0.87;60.61
58658;BME280;44428;45.630;13.786;2023-01-30T07:40:51;101928.94;;;0.96;59.81
58658;BME280;44428;45.630;13.786;2023-01-30T07:43:17;101925.34;;;1.06;59.79
58658;BME280;44428;45.630;13.786;2023-01-30T07:45:47;101918.31;;;1.14;59.47
58658;BME280;44428;45.630;13.786;2023-01-30T07:48:15;101911.28;;;1.22;59.39
58658;BME280;44428;45.630;13.786;2023-01-30T07:50:41;101916.38;;;1.31;59.01
58658;BME280;44428;45.630;13.786;2023-01-30T07:53:09;101902.31;;;1.45;58.71
58658;BME280;44428;45.630;13.786;2023-01-30T07:55:35;101896.13;;;1.53;58.11
58658;BME280;44428;45.630;13.786;2023-01-30T07:58:01;101882.03;;;1.68;58.14
58658;BME280;44428;45.630;13.786;2023-01-30T08:00:27;101862.66;;;1.84;57.76
58658;BME280;44428;45.630;13.786;2023-01-30T08:02:53;101853.69;;;2.04;56.76
58658;BME280;44428;45.630;13.786;2023-01-30T08:05:19;101853.19;;;2.32;55.79
58658;BME280;44428;45.630;13.786;2023-01-30T08:07:44;101856.38;;;2.49;55.54
58658;BME280;44428;45.630;13.786;2023-01-30T08:10:12;101863.78;;;2.70;54.50
58658;BME280;44428;45.630;13.786;2023-01-30T08:12:39;101878.19;;;2.90;54.10
58658;BME280;44428;45.630;13.786;2023-01-30T08:15:06;101875.25;;;3.07;54.23
58658;BME280;44428;45.630;13.786;2023-01-30T08:17:31;101886.06;;;3.32;53.35
58658;BME280;44428;45.630;13.786;2023-01-30T08:19:57;101887.25;;;3.57;52.56
58658;BME280;44428;45.630;13.786;2023-01-30T08:22:23;101889.41;;;3.77;52.25
58658;BME280;44428;45.630;13.786;2023-01-30T08:24:49;101877.56;;;3.98;51.79
58658;BME280;44428;45.630;13.786;2023-01-30T08:27:15;101881.28;;;4.25;51.31
58658;BME280;44428;45.630;13.786;2023-01-30T08:29:40;101879.78;;;4.49;51.03
58658;BME280;44428;45.630;13.786;2023-01-30T08:32:06;101879.22;;;4.71;51.04
58658;BME280;44428;45.630;13.786;2023-01-30T08:34:32;101864.72;;;4.90;49.32
58658;BME280;44428;45.630;13.786;2023-01-30T08:36:57;101863.22;;;5.11;49.44
58658;BME280;44428;45.630;13.786;2023-01-30T08:39:23;101863.56;;;5.30;49.04
58658;BME280;44428;45.630;13.786;2023-01-30T08:41:49;101861.38;;;5.44;48.23
58658;BME280;44428;45.630;13.786;2023-01-30T08:44:14;101857.28;;;5.64;48.15
58658;BME280;44428;45.630;13.786;2023-01-30T08:46:40;101858.50;;;5.80;46.96
58658;BME280;44428;45.630;13.786;2023-01-30T08:49:06;101847.25;;;6.05;46.60
58658;BME280;44428;45.630;13.786;2023-01-30T08:51:32;101844.28;;;6.65;45.54
58658;BME280;44428;45.630;13.786;2023-01-30T08:53:58;101845.59;;;7.92;42.75
58658;BME280;44428;45.630;13.786;2023-01-30T08:56:23;101833.97;;;9.55;40.02
58658;BME280;44428;45.630;13.786;2023-01-30T08:58:49;101827.88;;;11.57;35.97
58658;BME280;44428;45.630;13.786;2023-01-30T09:01:15;101835.03;;;13.33;31.97
58658;BME280;44428;45.630;13.786;2023-01-30T09:03:41;101823.03;;;14.98;29.70
58658;BME280;44428;45.630;13.786;2023-01-30T09:06:07;101810.31;;;16.57;27.12
58658;BME280;44428;45.630;13.786;2023-01-30T09:08:33;101802.03;;;17.38;25.88
58658;BME280;44428;45.630;13.786;2023-01-30T09:11:00;101788.31;;;18.59;24.12
58658;BME280;44428;45.630;13.786;2023-01-30T09:13:27;101778.72;;;17.40;25.07
58658;BME280;44428;45.630;13.786;2023-01-30T09:15:53;101789.22;;;16.65;26.04
58658;BME280;44428;45.630;13.786;2023-01-30T09:18:19;101799.09;;;15.22;27.75
58658;BME280;44428;45.630;13.786;2023-01-30T09:20:45;101790.16;;;13.82;29.67
58658;BME280;44428;45.630;13.786;2023-01-30T09:23:10;101800.75;;;12.44;31.56
58658;BME280;44428;45.630;13.786;2023-01-30T09:25:36;101798.34;;;11.49;32.95
58658;BME280;44428;45.630;13.786;2023-01-30T09:28:02;101809.00;;;10.99;34.18
58658;BME280;44428;45.630;13.786;2023-01-30T09:30:28;101813.63;;;10.63;35.05
58658;BME280;44428;45.630;13.786;2023-01-30T09:32:54;101807.41;;;10.46;35.29
58658;BME280;44428;45.630;13.786;2023-01-30T09:35:19;101807.25;;;10.49;35.28
58658;BME280;44428;45.630;13.786;2023-01-30T09:37:49;101806.19;;;11.03;34.68
58658;BME280;44428;45.630;13.786;2023-01-30T09:40:30;101802.00;;;11.62;33.66
58658;BME280;44428;45.630;13.786;2023-01-30T09:45:52;101800.88;;;10.19;35.95
58658;BME280;44428;45.630;13.786;2023-01-30T09:48:52;101790.06;;;9.71;36.75
58658;BME280;44428;45.630;13.786;2023-01-30T09:51:33;101791.84;;;9.71;37.42
58658;BME280;44428;45.630;13.786;2023-01-30T09:56:41;101799.97;;;10.20;37.36
58658;BME280;44428;45.630;13.786;2023-01-30T09:59:20;101805.56;;;10.97;36.54
58658;BME280;44428;45.630;13.786;2023-01-30T10:02:05;101782.19;;;12.72;34.13
58658;BME280;44428;45.630;13.786;2023-01-30T10:04:43;101777.06;;;14.83;30.92
58658;BME280;44428;45.630;13.786;2023-01-30T10:07:14;101771.34;;;15.61;29.21
58658;BME280;44428;45.630;13.786;2023-01-30T10:10:00;101762.69;;;17.94;26.36
58658;BME280;44428;45.630;13.786;2023-01-30T10:12:42;101755.88;;;19.43;24.23
58658;BME280;44428;45.630;13.786;2023-01-30T10:23:22;101752.97;;;13.42;31.07
58658;BME280;44428;45.630;13.786;2023-01-30T10:25:55;101750.75;;;13.49;32.59
58658;BME280;44428;45.630;13.786;2023-01-30T10:28:28;101745.78;;;16.40;28.54
58658;BME280;44428;45.630;13.786;2023-01-30T10:31:03;101754.41;;;19.19;25.53
58658;BME280;44428;45.630;13.786;2023-01-30T10:33:35;101733.69;;;20.46;23.82
58658;BME280;44428;45.630;13.786;2023-01-30T10:39:01;101724.56;;;21.58;22.13
58658;BME280;44428;45.630;13.786;2023-01-30T10:41:36;101721.34;;;21.36;22.44
58658;BME280;44428;45.630;13.786;2023-01-30T10:44:06;101730.00;;;21.48;21.78
58658;BME280;44428;45.630;13.786;2023-01-30T10:57:02;101710.41;;;20.74;23.69
58658;BME280;44428;45.630;13.786;2023-01-30T10:59:54;101693.22;;;19.54;24.88
58658;BME280;44428;45.630;13.786;2023-01-30T11:05:20;101690.63;;;18.13;26.62
58658;BME280;44428;45.630;13.786;2023-01-30T11:07:48;101684.34;;;18.64;26.46
58658;BME280;44428;45.630;13.786;2023-01-30T11:10:23;101685.44;;;18.52;26.52
58658;BME280;44428;45.630;13.786;2023-01-30T11:13:07;101659.94;;;18.17;27.23
58658;BME280;44428;45.630;13.786;2023-01-30T11:15:39;101651.13;;;17.96;27.79
58658;BME280;44428;45.630;13.786;2023-01-30T11:18:05;101648.00;;;17.91;28.06
58658;BME280;44428;45.630;13.786;2023-01-30T11:20:38;101646.56;;;18.17;27.94
58658;BME280;44428;45.630;13.786;2023-01-30T11:23:22;101636.38;;;17.38;29.31
58658;BME280;44428;45.630;13.786;2023-01-30T11:25:51;101647.47;;;16.13;30.95
58658;BME280;44428;45.630;13.786;2023-01-30T11:28:16;101647.28;;;15.70;31.73
58658;BME280;44428;45.630;13.786;2023-01-30T11:30:52;101643.94;;;15.55;32.34
58658;BME280;44428;45.630;13.786;2023-01-30T11:33:19;101627.34;;;15.40;32.81
58658;BME280;44428;45.630;13.786;2023-01-30T11:36:01;101630.25;;;15.48;32.59
58658;BME280;44428;45.630;13.786;2023-01-30T11:38:29;101629.53;;;15.57;32.81
58658;BME280;44428;45.630;13.786;2023-01-30T11:41:20;101629.03;;;15.76;32.52
58658;BME280;44428;45.630;13.786;2023-01-30T11:43:46;101604.66;;;16.03;32.46
58658;BME280;44428;45.630;13.786;2023-01-30T11:46:22;101603.22;;;15.99;32.73
58658;BME280;44428;45.630;13.786;2023-01-30T11:48:51;101597.91;;;17.93;30.30
58658;BME280;44428;45.630;13.786;2023-01-30T11:51:20;101597.06;;;18.83;29.17
58658;BME280;44428;45.630;13.786;2023-01-30T11:53:53;101586.28;;;19.41;28.40
58658;BME280;44428;45.630;13.786;2023-01-30T11:56:44;101591.00;;;20.41;26.89
58658;BME280;44428;45.630;13.786;2023-01-30T11:59:32;101586.25;;;20.35;26.30
58658;BME280;44428;45.630;13.786;2023-01-30T12:02:32;101578.88;;;20.65;26.28
58658;BME280;44428;45.630;13.786;2023-01-30T12:05:05;101575.38;;;20.82;26.21
58658;BME280;44428;45.630;13.786;2023-01-30T12:07:33;101584.91;;;21.38;25.47
58658;BME280;44428;45.630;13.786;2023-01-30T12:10:00;101579.91;;;22.04;24.08
58658;BME280;44428;45.630;13.786;2023-01-30T12:12:52;101566.22;;;21.89;24.61
58658;BME280;44428;45.630;13.786;2023-01-30T12:20:59;101544.19;;;21.85;24.21
58658;BME280;44428;45.630;13.786;2023-01-30T12:23:47;101532.44;;;21.94;24.14
58658;BME280;44428;45.630;13.786;2023-01-30T12:26:20;101531.78;;;21.58;24.15
58658;BME280;44428;45.630;13.786;2023-01-30T12:31:32;101521.47;;;21.54;23.97
58658;BME280;44428;45.630;13.786;2023-01-30T12:34:02;101498.84;;;20.86;25.25
58658;BME280;44428;45.630;13.786;2023-01-30T12:37:21;101499.06;;;21.19;24.91
58658;BME280;44428;45.630;13.786;2023-01-30T12:39:55;101496.22;;;20.94;24.58
58658;BME280;44428;45.630;13.786;2023-01-30T12:45:23;101474.06;;;21.26;24.68
58658;BME280;44428;45.630;13.786;2023-01-30T12:53:53;101461.22;;;20.86;25.01
58658;BME280;44428;45.630;13.786;2023-01-30T12:59:03;101437.25;;;20.67;25.81
58658;BME280;44428;45.630;13.786;2023-01-30T13:04:33;101430.41;;;20.98;25.23
58658;BME280;44428;45.630;13.786;2023-01-30T13:12:40;101425.28;;;20.87;25.76
58658;BME280;44428;45.630;13.786;2023-01-30T13:18:51;101430.81;;;20.59;25.65
58658;BME280;44428;45.630;13.786;2023-01-30T13:21:41;101444.81;;;20.18;26.18
58658;BME280;44428;45.630;13.786;2023-01-30T13:26:49;101449.13;;;20.46;26.14
58658;BME280;44428;45.630;13.786;2023-01-30T13:29:28;101459.25;;;20.17;26.51
58658;BME280;44428;45.630;13.786;2023-01-30T13:31:58;101449.44;;;19.52;27.31
58658;BME280;44428;45.630;13.786;2023-01-30T13:34:34;101451.91;;;19.63;27.32
58658;BME280;44428;45.630;13.786;2023-01-30T13:37:01;101457.31;;;19.16;28.12
58658;BME280;44428;45.630;13.786;2023-01-30T13:39:38;101459.22;;;18.87;28.52
58658;BME280;44428;45.630;13.786;2023-01-30T13:44:50;101444.28;;;18.16;29.97
58658;BME280;44428;45.630;13.786;2023-01-30T14:00:59;101411.09;;;17.28;31.86
58658;BME280;44428;45.630;13.786;2023-01-30T14:03:31;101413.41;;;17.12;32.39
58658;BME280;44428;45.630;13.786;2023-01-30T14:05:58;101403.91;;;16.56;33.22
58658;BME280;44428;45.630;13.786;2023-01-30T14:08:34;101411.75;;;16.16;34.49
58658;BME280;44428;45.630;13.786;2023-01-30T14:11:00;101401.38;;;16.01;34.53
58658;BME280;44428;45.630;13.786;2023-01-30T14:13:27;101414.19;;;16.08;34.53
58658;BME280;44428;45.630;13.786;2023-01-30T14:16:00;101407.66;;;16.00;34.84
58658;BME280;44428;45.630;13.786;2023-01-30T14:18:31;101407.56;;;15.91;35.21
58658;BME280;44428;45.630;13.786;2023-01-30T14:21:21;101409.19;;;15.60;35.80
58658;BME280;44428;45.630;13.786;2023-01-30T14:23:57;101400.97;;;15.29;36.73
58658;BME280;44428;45.630;13.786;2023-01-30T14:39:53;101377.38;;;13.48;40.67
58658;BME280;44428;45.630;13.786;2023-01-30T14:42:25;101381.22;;;13.31;41.64
58658;BME280;44428;45.630;13.786;2023-01-30T14:45:39;101368.72;;;13.07;42.13
58658;BME280;44428;45.630;13.786;2023-01-30T15:07:11;101354.53;;;11.08;48.00
58658;BME280;44428;45.630;13.786;2023-01-30T15:09:37;101350.72;;;10.83;48.76
58658;BME280;44428;45.630;13.786;2023-01-30T15:14:53;101360.88;;;10.32;50.52
58658;BME280;44428;45.630;13.786;2023-01-30T15:21:15;101354.38;;;9.76;53.00
58658;BME280;44428;45.630;13.786;2023-01-30T15:31:32;101391.50;;;8.57;57.02
58658;BME280;44428;45.630;13.786;2023-01-30T15:33:58;101387.91;;;8.23;58.02
58658;BME280;44428;45.630;13.786;2023-01-30T15:36:34;101398.06;;;7.95;59.35
58658;BME280;44428;45.630;13.786;2023-01-30T15:39:05;101393.97;;;7.70;60.29